Roseau, MN

12:39 AM CDT on August 02, 2015 (GMT -0500)
Roseau Municipal-Billberg | | Change Station
CLOSE
Current Station
Airport
Location: Roseau,
Elevation: 1060 ft
Nearby Weather Stations
Active Advisory: Severe Thunderstorm Warning Active Notice: Local Storm Report

Elev 1060 ft 48.86 °N, 95.70 °W | Updated 4 minutes ago

Thunderstorm
Thunderstorm
61 °F
Feels Like 61 °F
N
6
Wind Variable Wind from West

Today
High -- | Low -- °F
--% Chance of Precip.
Yesterday
High -- | Low -- °F
Precip. -- in
5:57 AM 8:59 PM
Waning Gibbous, 95% visible
Pressure 29.72 in
Visibility 10.0 miles
Clouds Scattered Clouds 2100 ft
Mostly Cloudy 4100 ft
Overcast 7500 ft
Dew Point 55 °F
Humidity 82%
Rainfall 0.28 in
Snow Depth Not available.
UV 0 out of 12
Pollen 7.50 out of 12
Air Quality Not available.
Flu Activity Not available.
METAR KROX 020535Z AUTO 27005KT 10SM -VCTSRA SCT021 BKN041 OVC075 16/13 A2972 RMK AO2 P0017 LTG DSNT ALQDS

More Conditions Fewer Conditions

Pressure 29.72 in
Visibility 10.0 miles
Clouds Scattered Clouds 2100 ft
Mostly Cloudy 4100 ft
Overcast 7500 ft
Dew Point 55 °F
Humidity 82%
Rainfall 0.28 in
Snow Depth Not available.
UV 0 out of 12
Pollen 7.50 out of 12
Air Quality Not available.
Flu Activity Not available.
METAR KROX 020535Z AUTO 27005KT 10SM -VCTSRA SCT021 BKN041 OVC075 16/13 A2972 RMK AO2 P0017 LTG DSNT ALQDS

More Conditions Fewer Conditions

10-Day Weather Forecast

×

Almanac

Astronomy

Aug. 02, 2015 Rise Set
Actual Time
Civil Twilight
Nautical Twilight
Astronomical Twilight
Moon
Length of Visible Light
Length of Day
Tomorrow will be .
, % of the Moon is Illuminated

Today's Extremes

State Highs State Lows

Community

WunderPhotos

Upload Photos

1,843,196 photos uploaded!

WunderBlogs® & News

Nearby

Air Quality

  Air Quality AQ Index Pollutant
Not available.

Snow Depth

Station Depth Elevation

Earthquake Activity

City Distance Mag. Time & Date
Minimum magnitude displayed is 2.5.

Coastal Water Temperatures

Place Temperature

Stations

Nearby Weather Stations

Station Location Temp. Windchill Dew Point Humidity Wind Precip. Elev Updated Type
                   
Severe Thunderstorm Warning
Statement as of 12:27 AM CDT on August 02, 2015

... The Severe Thunderstorm Warning for eastern Roseau County is
cancelled...

the severe thunderstorm which prompted the warning has weakened.
Therefore the warning has been cancelled.

Lat... Lon 4838 9454 4856 9509 4890 9507 4878 9469
      4874 9464 4871 9455
time... Mot... loc 0526z 289deg 43kt 4871 9497